01:16 Rennrad Moetz - Pettnau - Zirl - Kematen - Voels - Radweg - Innsbruck ARZ
Ort Innsbruck Datum 24.07.2015 06:34:08
Kategorie Rennrad
Distanz 39,10 Kilometer Steigung 87,0 Meter Gefälle -135,0 Meter
Gesamt Zeit 01:16:26 Aktiv 01:15:53 Pause 00:00:33
Durchs. Tempo 30,9 km/h Tempo max. 47,6 km/h Tempo min. 17,4 km/h
Kalorien 0 Durchs. HF 117 BPM HF max. 157 BPM
Wetter 19 °C Clouds Min/Max: 18,3 °C/19,1 °C; Druck: 1015,5 mbar; Rel. Feuchte: 93,2%; Taupunkt: 17,2 °C; Windgeschwindigkeit: 0,1 km/h; Niederschlag: 0,0mm
Ausrüstung Bontrager - RXL Road
Continental - Grand Prix 4000 S
Poison - Rennrad
Shimano - HG CN-7901 Dura Ace
Notiz Moetz - Pettnau - Zirl - Kematen - Voels - Radweg - Innsbruck ARZ ... trocken, wolkig, praktisch windstill, betont locker ... garmin connect
Splits
Distanz (km) Gesamt Zeit Split Zeit Split Tempo Split Tempo Höhenprofil (m)
1,00 00:02:13 00:02:13 00:02:13 27,0 -9,90
2,00 00:04:18 00:02:05 00:02:06 28,7 0,20
3,00 00:06:19 00:02:00 00:02:01 29,8 -0,53
4,00 00:08:19 00:01:59 00:02:00 30,1 -3,97
5,00 00:10:15 00:01:56 00:01:56 31,0 0,52
6,00 00:12:10 00:01:55 00:01:55 31,2 -0,31
7,00 00:14:08 00:01:57 00:01:58 30,6 -0,89
8,00 00:15:54 00:01:46 00:01:47 33,7 -7,58
9,00 00:17:47 00:01:52 00:01:53 32,0 -2,84
10,00 00:19:47 00:02:00 00:02:00 30,0 1,05
11,00 00:21:43 00:01:56 00:01:56 30,9 0,26
12,00 00:23:34 00:01:50 00:01:51 32,5 -6,47
13,00 00:25:26 00:01:52 00:01:52 32,1 -0,18
14,00 00:27:23 00:01:56 00:01:56 30,9 0,60
15,00 00:29:25 00:02:02 00:02:03 29,4 -5,90
16,00 00:31:19 00:01:53 00:01:54 31,7 4,14
17,00 00:33:13 00:01:53 00:01:54 31,6 -7,89
18,00 00:35:08 00:01:55 00:01:55 31,2 0,00
19,00 00:37:01 00:01:52 00:01:53 31,9 -0,57
20,00 00:38:54 00:01:53 00:01:54 31,7 -0,87
21,00 00:40:51 00:01:56 00:01:56 31,0 -3,46
22,00 00:42:42 00:01:51 00:01:52 32,2 -4,55
23,00 00:44:50 00:02:07 00:02:07 28,3 11,53
24,00 00:46:44 00:01:54 00:01:55 31,4 -0,74
25,00 00:49:06 00:02:21 00:02:22 25,4 16,92
26,00 00:50:46 00:01:39 00:01:40 36,1 -9,32
27,00 00:52:13 00:01:27 00:01:27 41,2 -30,34
28,00 00:53:58 00:01:45 00:01:45 34,3 3,68
29,00 00:56:03 00:02:04 00:02:04 28,9 1,44
30,00 00:57:55 00:01:52 00:01:52 32,1 -3,00
31,00 00:59:36 00:01:41 00:01:42 35,3 -3,36
32,00 01:01:24 00:01:47 00:01:47 33,5 -1,05
33,00 01:03:18 00:01:53 00:01:54 31,7 2,23
34,00 01:05:24 00:02:06 00:02:07 28,4 -8,16
35,00 01:07:21 00:01:56 00:01:57 30,9 -3,60
36,00 01:09:19 00:01:58 00:01:58 30,5 -2,00
37,00 01:11:14 00:01:55 00:01:55 31,3 -2,05
38,00 01:13:15 00:02:00 00:02:00 29,9 0,91
39,00 01:15:26 00:02:11 00:02:11 27,4 6,37
39,13 01:15:53 00:00:26 00:03:26 17,5 0,00